Time;durP1;ratioP1;P1;durP2;ratioP2;P2;SDS_P1;SDS_P2;PMS_P1;PMS_P2;Temp;Humidity;BMP_temperature;BMP_pressure;BME280_temperature;BME280_humidity;BME280_pressure;Samples;Min_cycle;Max_cycle;Signal;HPM_P1;HPM_P2
2023/04/18 00:02:17;;;;;;;12.88;11.68;;;9.70;82.00;;;;;;5098485;28;20947;-70
2023/04/18 00:04:45;;;;;;;13.18;11.98;;;9.70;82.60;;;;;;5107681;28;20424;-70
2023/04/18 00:07:13;;;;;;;12.93;11.73;;;9.70;83.40;;;;;;5100119;28;20564;-69
2023/04/18 00:09:40;;;;;;;12.60;11.30;;;9.60;82.50;;;;;;5106512;28;20432;-70
2023/04/18 00:12:10;;;;;;;12.65;11.65;;;9.50;83.70;;;;;;5108722;28;20929;-69
2023/04/18 00:14:37;;;;;;;12.40;11.20;;;9.50;83.80;;;;;;5102587;28;20430;-68
2023/04/18 00:17:07;;;;;;;12.13;10.93;;;9.50;83.90;;;;;;5105301;28;20415;-69
2023/04/18 00:19:34;;;;;;;12.43;11.13;;;9.40;83.80;;;;;;5105369;28;20434;-70
2023/04/18 00:22:01;;;;;;;12.73;11.63;;;9.40;84.40;;;;;;5108619;28;20427;-69
2023/04/18 00:24:28;;;;;;;12.40;11.35;;;9.40;84.20;;;;;;5106958;28;20858;-69
2023/04/18 00:26:55;;;;;;;12.05;10.95;;;9.40;84.80;;;;;;5099288;28;20440;-69
2023/04/18 00:29:24;;;;;;;12.05;11.05;;;9.30;84.60;;;;;;5106523;28;20914;-69
2023/04/18 00:31:50;;;;;;;11.93;10.82;;;9.20;84.80;;;;;;5106433;28;20431;-70
2023/04/18 00:34:17;;;;;;;12.10;11.10;;;9.20;84.20;;;;;;5107604;28;20436;-70
2023/04/18 00:36:44;;;;;;;12.40;11.40;;;9.20;84.50;;;;;;5108220;28;20555;-70
2023/04/18 00:39:10;;;;;;;12.07;11.15;;;9.20;84.50;;;;;;5106489;28;20428;-70
2023/04/18 00:41:37;;;;;;;12.18;10.98;;;9.20;84.50;;;;;;5107563;28;20439;-70
2023/04/18 00:44:04;;;;;;;11.20;10.20;;;9.10;84.50;;;;;;5106652;28;20442;-70
2023/04/18 00:46:32;;;;;;;10.75;9.75;;;9.10;83.70;;;;;;5113111;28;20432;-69
2023/04/18 00:48:59;;;;;;;11.80;10.40;;;9.10;83.00;;;;;;5114246;28;20424;-69
2023/04/18 00:51:26;;;;;;;10.90;9.90;;;9.10;83.50;;;;;;5111989;28;20435;-70
2023/04/18 00:53:54;;;;;;;11.65;10.65;;;9.00;82.70;;;;;;5108866;28;20483;-69
2023/04/18 00:56:22;;;;;;;11.15;10.13;;;9.00;83.30;;;;;;5109839;28;20984;-69
2023/04/18 00:58:49;;;;;;;11.33;10.23;;;9.00;83.10;;;;;;5110852;28;20488;-69
2023/04/18 01:01:16;;;;;;;11.80;10.60;;;9.00;83.80;;;;;;5112694;28;20424;-69
2023/04/18 01:03:44;;;;;;;11.30;10.30;;;8.90;82.90;;;;;;5110731;28;20911;-69
2023/04/18 01:06:11;;;;;;;10.43;9.43;;;8.90;82.30;;;;;;5110717;28;20428;-69
2023/04/18 01:08:38;;;;;;;10.50;9.60;;;8.80;82.60;;;;;;5110355;28;20423;-69
2023/04/18 01:11:05;;;;;;;10.48;9.48;;;8.80;82.80;;;;;;5108505;28;20424;-70
2023/04/18 01:13:32;;;;;;;11.57;10.38;;;8.80;82.50;;;;;;5103963;28;20433;-69
2023/04/18 01:15:58;;;;;;;11.02;10.07;;;8.70;82.90;;;;;;5108803;28;20428;-70
2023/04/18 01:18:26;;;;;;;11.30;10.30;;;8.70;83.20;;;;;;5109365;28;20436;-70
2023/04/18 01:20:55;;;;;;;11.27;10.13;;;8.70;84.10;;;;;;5110404;28;20847;-70
2023/04/18 01:23:22;;;;;;;11.23;10.13;;;8.70;83.50;;;;;;5109479;28;20429;-70
2023/04/18 01:25:50;;;;;;;10.23;9.30;;;8.70;83.50;;;;;;5109585;28;20420;-69
2023/04/18 01:28:20;;;;;;;10.38;9.40;;;8.70;83.00;;;;;;5109785;28;20431;-70
2023/04/18 01:30:46;;;;;;;10.45;9.55;;;8.70;83.60;;;;;;5110140;28;20419;-70
2023/04/18 01:33:13;;;;;;;10.68;9.68;;;8.60;82.80;;;;;;5101443;28;20428;-70
2023/04/18 01:35:40;;;;;;;10.75;9.85;;;8.60;82.10;;;;;;5110213;28;20887;-70
2023/04/18 01:38:07;;;;;;;10.70;9.80;;;8.50;83.00;;;;;;5109506;28;20427;-70
2023/04/18 01:40:33;;;;;;;10.30;9.30;;;8.50;83.50;;;;;;5107014;28;20918;-70
2023/04/18 01:43:01;;;;;;;10.70;9.65;;;8.40;84.60;;;;;;5110403;28;20423;-70
2023/04/18 01:45:28;;;;;;;10.40;9.40;;;8.40;84.20;;;;;;5110146;28;20435;-70
2023/04/18 01:47:55;;;;;;;10.90;9.90;;;8.40;84.60;;;;;;5115862;28;20415;-70
2023/04/18 01:50:22;;;;;;;11.40;9.95;;;8.30;85.00;;;;;;5120043;28;20432;-70
2023/04/18 01:52:48;;;;;;;10.73;9.82;;;8.30;84.90;;;;;;5121208;28;20424;-69
2023/04/18 01:55:15;;;;;;;11.60;10.00;;;8.30;84.70;;;;;;5113403;28;20432;-69
2023/04/18 01:57:42;;;;;;;10.98;9.98;;;8.30;85.20;;;;;;5109466;28;20436;-71
2023/04/18 02:00:11;;;;;;;10.60;9.65;;;8.30;85.60;;;;;;5108903;28;20781;-69
2023/04/18 02:02:38;;;;;;;11.43;10.38;;;8.30;85.60;;;;;;5109718;28;20428;-69
2023/04/18 02:05:05;;;;;;;10.80;9.70;;;8.30;84.40;;;;;;5110095;28;20798;-69
2023/04/18 02:07:32;;;;;;;11.00;9.95;;;8.20;84.30;;;;;;5109619;28;20428;-69
2023/04/18 02:09:59;;;;;;;12.38;10.60;;;8.20;84.50;;;;;;5108531;28;20431;-69
2023/04/18 02:12:25;;;;;;;11.00;9.90;;;8.10;84.90;;;;;;5102891;28;20806;-70
2023/04/18 02:14:53;;;;;;;11.20;10.10;;;8.10;84.90;;;;;;5109593;28;20428;-69
2023/04/18 02:17:22;;;;;;;11.00;9.77;;;8.10;85.20;;;;;;5109787;28;20937;-70
2023/04/18 02:19:50;;;;;;;10.95;9.95;;;8.00;85.20;;;;;;5108635;28;20492;-69
2023/04/18 02:22:17;;;;;;;10.98;10.00;;;8.00;85.40;;;;;;5108152;28;20956;-70
2023/04/18 02:24:44;;;;;;;10.80;9.82;;;8.00;85.60;;;;;;5103883;28;20430;-69
2023/04/18 02:27:11;;;;;;;11.50;10.50;;;8.00;85.10;;;;;;5107582;28;20444;-71
2023/04/18 02:29:38;;;;;;;10.73;9.73;;;7.90;85.40;;;;;;5104769;28;20423;-70
2023/04/18 02:32:05;;;;;;;10.75;9.85;;;7.90;86.40;;;;;;5108091;28;20925;-69
2023/04/18 02:34:33;;;;;;;11.23;10.23;;;7.80;87.10;;;;;;5109324;28;20424;-69
2023/04/18 02:37:00;;;;;;;11.57;10.57;;;7.80;87.30;;;;;;5122688;22;20417;-68
2023/04/18 02:39:27;;;;;;;11.70;10.50;;;7.80;87.60;;;;;;5084054;28;20490;-68
2023/04/18 02:41:54;;;;;;;11.10;9.95;;;7.80;87.60;;;;;;5089249;28;20433;-68
2023/04/18 02:44:20;;;;;;;11.70;9.93;;;7.80;87.20;;;;;;5091712;28;20436;-68
2023/04/18 02:46:47;;;;;;;11.55;10.40;;;7.80;87.10;;;;;;5094772;28;20426;-68
2023/04/18 02:49:14;;;;;;;11.70;10.50;;;7.80;86.90;;;;;;5088986;28;20922;-68
2023/04/18 02:51:42;;;;;;;11.95;10.85;;;7.80;87.00;;;;;;5070264;28;20513;-68
2023/04/18 02:54:09;;;;;;;12.05;10.88;;;7.80;86.70;;;;;;5072860;28;20427;-69
2023/04/18 02:56:38;;;;;;;11.50;10.33;;;7.80;87.10;;;;;;5066466;28;20483;-68
2023/04/18 02:59:05;;;;;;;11.40;10.30;;;7.80;87.40;;;;;;5066925;28;20500;-70
2023/04/18 03:01:32;;;;;;;11.50;10.40;;;7.80;87.90;;;;;;5076418;28;20427;-69
2023/04/18 03:03:59;;;;;;;11.50;10.35;;;7.80;87.40;;;;;;5084967;28;20466;-67
2023/04/18 03:06:26;;;;;;;12.20;10.60;;;7.70;87.20;;;;;;5084466;28;20426;-68
2023/04/18 03:08:54;;;;;;;10.95;10.02;;;7.70;87.60;;;;;;5083970;28;20457;-67
2023/04/18 03:11:21;;;;;;;11.98;10.88;;;7.70;87.40;;;;;;5088962;28;20411;-69
2023/04/18 03:13:47;;;;;;;11.43;10.43;;;7.60;87.70;;;;;;5078278;28;20503;-68
2023/04/18 03:16:15;;;;;;;11.20;10.30;;;7.60;88.30;;;;;;5072694;28;20443;-67
2023/04/18 03:18:42;;;;;;;11.73;10.63;;;7.50;88.70;;;;;;5070712;28;20492;-67
2023/04/18 03:21:08;;;;;;;12.02;10.82;;;7.50;88.90;;;;;;5071158;28;20491;-68
2023/04/18 03:23:35;;;;;;;11.93;10.63;;;7.40;89.10;;;;;;5081659;28;20413;-67
2023/04/18 03:26:05;;;;;;;11.35;10.35;;;7.40;90.20;;;;;;5067840;28;20519;-68
2023/04/18 03:28:31;;;;;;;11.20;10.20;;;7.30;90.00;;;;;;5066226;28;20444;-68
2023/04/18 03:30:59;;;;;;;11.52;10.45;;;7.30;90.30;;;;;;5065515;28;20433;-68
2023/04/18 03:33:27;;;;;;;12.60;11.40;;;7.30;90.60;;;;;;5066812;28;20827;-67
2023/04/18 03:35:54;;;;;;;12.88;11.68;;;7.20;90.40;;;;;;5071025;28;20503;-67
2023/04/18 03:38:21;;;;;;;12.68;11.48;;;7.20;90.60;;;;;;5080106;28;20932;-68
2023/04/18 03:40:47;;;;;;;12.15;11.05;;;7.20;90.70;;;;;;5064156;28;20427;-68
2023/04/18 03:43:15;;;;;;;12.20;11.00;;;7.20;91.00;;;;;;5056320;28;20463;-67
2023/04/18 03:45:43;;;;;;;12.43;11.43;;;7.10;91.20;;;;;;5069075;28;20500;-68
2023/04/18 03:48:09;;;;;;;12.70;11.50;;;7.10;91.20;;;;;;5063783;28;20440;-68
2023/04/18 03:50:36;;;;;;;13.25;11.57;;;7.00;91.20;;;;;;5065688;28;20717;-68
2023/04/18 03:53:03;;;;;;;12.48;11.40;;;7.00;91.80;;;;;;5069227;28;20438;-68
2023/04/18 03:55:29;;;;;;;13.38;12.00;;;7.00;92.30;;;;;;5064827;28;20423;-68
2023/04/18 03:57:57;;;;;;;13.47;12.17;;;7.10;92.50;;;;;;5064269;28;20694;-68
2023/04/18 04:00:26;;;;;;;13.00;11.90;;;7.10;92.70;;;;;;5063817;28;20568;-68
2023/04/18 04:02:52;;;;;;;13.95;12.55;;;7.10;92.80;;;;;;5064773;28;20431;-67
2023/04/18 04:05:19;;;;;;;13.30;12.10;;;7.10;92.80;;;;;;5064060;28;21152;-67
2023/04/18 04:07:46;;;;;;;12.60;11.30;;;7.10;92.60;;;;;;5072037;28;20492;-68
2023/04/18 04:10:13;;;;;;;13.35;12.13;;;7.00;92.70;;;;;;5065169;28;20423;-68
2023/04/18 04:12:39;;;;;;;12.95;11.85;;;7.00;93.00;;;;;;5063475;28;20434;-68
2023/04/18 04:15:07;;;;;;;13.57;12.27;;;7.00;93.20;;;;;;5063543;28;20890;-69
2023/04/18 04:17:35;;;;;;;13.40;12.10;;;7.00;93.20;;;;;;5067648;28;20515;-69
2023/04/18 04:20:02;;;;;;;13.00;11.80;;;7.00;93.60;;;;;;5066761;28;20882;-68
2023/04/18 04:22:29;;;;;;;13.57;12.43;;;7.00;93.50;;;;;;5066993;28;20446;-68
2023/04/18 04:24:57;;;;;;;13.20;11.80;;;7.00;93.80;;;;;;5069661;28;20438;-70
2023/04/18 04:27:25;;;;;;;13.27;11.98;;;7.00;93.80;;;;;;5069470;28;20434;-69
2023/04/18 04:29:52;;;;;;;13.70;12.50;;;7.00;93.90;;;;;;5063466;28;20431;-67
2023/04/18 04:32:20;;;;;;;13.37;12.17;;;7.00;93.90;;;;;;5077254;28;20437;-67
2023/04/18 04:34:49;;;;;;;13.60;12.30;;;7.10;93.80;;;;;;5077655;28;20509;-68
2023/04/18 04:37:17;;;;;;;13.40;12.00;;;7.20;93.90;;;;;;5074116;28;20762;-69
2023/04/18 04:39:44;;;;;;;13.40;12.23;;;7.30;93.40;;;;;;5068123;28;20438;-68
2023/04/18 04:42:12;;;;;;;14.30;13.10;;;7.40;93.00;;;;;;5076259;28;20485;-68
2023/04/18 04:44:40;;;;;;;13.00;11.82;;;7.40;93.00;;;;;;5078916;28;20438;-70
2023/04/18 04:47:07;;;;;;;13.30;12.10;;;7.50;93.00;;;;;;5085674;28;20439;-73
2023/04/18 04:49:33;;;;;;;13.80;12.40;;;7.50;92.80;;;;;;5084076;28;20433;-73
2023/04/18 04:52:02;;;;;;;13.45;12.35;;;7.50;92.80;;;;;;5089515;28;20413;-72
2023/04/18 04:54:29;;;;;;;13.90;12.70;;;7.60;92.80;;;;;;5092785;28;20625;-70
2023/04/18 04:56:56;;;;;;;13.80;12.50;;;7.60;92.80;;;;;;5104764;28;20483;-71
2023/04/18 04:59:23;;;;;;;14.35;13.15;;;7.60;92.90;;;;;;5074269;28;20892;-71
2023/04/18 05:01:49;;;;;;;12.40;11.30;;;7.70;93.10;;;;;;5067903;28;20423;-71
2023/04/18 05:04:16;;;;;;;14.18;12.82;;;7.70;92.90;;;;;;5070351;28;20454;-71
2023/04/18 05:06:43;;;;;;;14.27;12.88;;;7.70;92.90;;;;;;5064998;28;20917;-71
2023/04/18 05:09:11;;;;;;;13.13;11.90;;;7.70;92.80;;;;;;5062722;28;20528;-71
2023/04/18 05:11:38;;;;;;;14.18;12.98;;;7.70;92.60;;;;;;5067955;28;20524;-70
2023/04/18 05:14:05;;;;;;;13.90;12.80;;;7.70;92.40;;;;;;5060376;28;20427;-75
2023/04/18 05:16:32;;;;;;;13.30;12.20;;;7.80;92.80;;;;;;5070956;28;20432;-62
2023/04/18 05:18:58;;;;;;;14.18;12.77;;;7.80;92.80;;;;;;5061392;28;20444;-63
2023/04/18 05:21:27;;;;;;;14.30;13.10;;;7.80;92.70;;;;;;5075641;28;20457;-73
2023/04/18 05:23:55;;;;;;;14.00;12.80;;;7.90;92.80;;;;;;5079145;28;20438;-71
2023/04/18 05:26:24;;;;;;;14.52;13.25;;;7.90;92.30;;;;;;5070813;28;20579;-72
2023/04/18 05:28:51;;;;;;;14.20;13.00;;;8.00;92.30;;;;;;5068551;28;20435;-71
2023/04/18 05:31:17;;;;;;;14.73;13.43;;;8.10;92.00;;;;;;5070862;28;20481;-71
2023/04/18 05:33:44;;;;;;;14.10;12.90;;;8.10;92.10;;;;;;5072527;28;20545;-70
2023/04/18 05:36:11;;;;;;;14.00;12.80;;;8.10;92.10;;;;;;5070780;28;20458;-71
2023/04/18 05:38:38;;;;;;;15.00;13.48;;;8.20;92.30;;;;;;5070783;28;20875;-71
2023/04/18 05:41:05;;;;;;;14.48;13.10;;;8.20;92.60;;;;;;5070043;28;20411;-71
2023/04/18 05:43:33;;;;;;;15.23;13.73;;;8.30;92.20;;;;;;5079968;28;20938;-71
2023/04/18 05:45:59;;;;;;;14.50;13.20;;;8.40;92.20;;;;;;5064440;28;20443;-70
2023/04/18 05:48:27;;;;;;;14.00;12.70;;;8.40;91.60;;;;;;5069287;28;20423;-71
2023/04/18 05:50:54;;;;;;;14.90;13.33;;;8.50;91.60;;;;;;5069890;28;20538;-70
2023/04/18 05:53:21;;;;;;;13.88;12.50;;;8.50;91.40;;;;;;5068969;28;20423;-71
2023/04/18 05:55:49;;;;;;;14.45;13.15;;;8.50;90.90;;;;;;5071119;28;20427;-71
2023/04/18 05:58:15;;;;;;;14.35;13.05;;;8.50;90.90;;;;;;5072378;28;20474;-71
2023/04/18 06:00:44;;;;;;;14.07;12.77;;;8.50;90.80;;;;;;5076893;28;20887;-70
2023/04/18 06:03:10;;;;;;;14.48;13.18;;;8.50;91.00;;;;;;5078436;28;21024;-70
2023/04/18 06:05:39;;;;;;;13.77;12.57;;;8.60;91.20;;;;;;5069430;28;20443;-71
2023/04/18 06:08:06;;;;;;;14.57;13.18;;;8.50;91.20;;;;;;5066333;28;20477;-72
2023/04/18 06:10:33;;;;;;;13.95;12.65;;;8.60;91.10;;;;;;5065617;28;20514;-70
2023/04/18 06:13:00;;;;;;;14.10;12.80;;;8.60;91.00;;;;;;5070813;28;20427;-70
2023/04/18 06:15:27;;;;;;;14.20;12.90;;;8.60;90.80;;;;;;5069013;28;20427;-70
2023/04/18 06:17:55;;;;;;;14.60;13.20;;;8.60;90.90;;;;;;5068032;28;20451;-71
2023/04/18 06:20:22;;;;;;;14.60;13.20;;;8.60;91.10;;;;;;5060563;28;20535;-72
2023/04/18 06:22:49;;;;;;;13.87;12.67;;;8.70;91.10;;;;;;5069604;28;20407;-70
2023/04/18 06:25:16;;;;;;;13.32;11.95;;;8.80;90.70;;;;;;5063781;28;20437;-70
2023/04/18 06:27:43;;;;;;;13.70;12.30;;;8.90;90.50;;;;;;5063018;28;20407;-72
2023/04/18 06:30:10;;;;;;;12.55;11.55;;;9.00;90.30;;;;;;5062441;28;20430;-72
2023/04/18 06:32:38;;;;;;;13.00;11.73;;;9.10;89.20;;;;;;5069275;28;20459;-72
2023/04/18 06:35:07;;;;;;;12.63;11.52;;;9.20;87.40;;;;;;5065376;28;20534;-73
2023/04/18 06:37:34;;;;;;;12.02;11.02;;;9.20;87.10;;;;;;5065241;28;20423;-72
2023/04/18 06:40:00;;;;;;;11.80;10.70;;;9.30;85.60;;;;;;5063737;28;20431;-72
2023/04/18 06:42:27;;;;;;;12.13;11.02;;;9.30;84.60;;;;;;5057176;28;20423;-73
2023/04/18 06:44:54;;;;;;;12.50;11.40;;;9.40;85.90;;;;;;5063443;28;20506;-72
2023/04/18 06:47:22;;;;;;;11.93;10.93;;;9.40;84.70;;;;;;5057334;28;20909;-72
2023/04/18 06:49:48;;;;;;;15.55;14.00;;;9.50;84.30;;;;;;5069369;28;20466;-73
2023/04/18 06:52:16;;;;;;;12.40;11.30;;;9.50;84.50;;;;;;5063947;28;20423;-72
2023/04/18 06:54:43;;;;;;;11.18;10.18;;;9.60;84.50;;;;;;5057842;28;20444;-73
2023/04/18 06:57:10;;;;;;;11.87;10.77;;;9.60;84.30;;;;;;5064251;28;20445;-72
2023/04/18 06:59:37;;;;;;;10.50;9.68;;;9.70;84.00;;;;;;5063143;28;20471;-72
2023/04/18 07:02:04;;;;;;;11.27;10.27;;;9.80;82.40;;;;;;5061354;28;20559;-73
2023/04/18 07:04:30;;;;;;;10.18;9.27;;;9.90;81.10;;;;;;5062942;28;20419;-73
2023/04/18 07:06:57;;;;;;;10.30;9.40;;;10.10;81.00;;;;;;5063206;28;20426;-73
2023/04/18 07:09:25;;;;;;;10.23;9.43;;;10.20;79.40;;;;;;5065417;28;20801;-73
2023/04/18 07:11:52;;;;;;;10.75;9.75;;;10.30;79.00;;;;;;5058535;28;20423;-72
2023/04/18 07:14:21;;;;;;;10.10;9.30;;;10.50;77.90;;;;;;5064089;28;20423;-72
2023/04/18 07:16:47;;;;;;;10.10;9.10;;;10.70;76.80;;;;;;5063759;28;20432;-73
2023/04/18 07:19:14;;;;;;;9.38;8.48;;;10.90;75.90;;;;;;5063509;28;20418;-73
2023/04/18 07:21:43;;;;;;;9.20;8.30;;;11.10;74.10;;;;;;5062422;28;20677;-73
2023/04/18 07:24:10;;;;;;;8.82;8.07;;;11.30;73.10;;;;;;5063209;28;20493;-72
2023/04/18 07:26:38;;;;;;;9.10;8.38;;;11.50;69.70;;;;;;5063409;28;20431;-72
2023/04/18 07:29:05;;;;;;;8.88;7.97;;;11.60;69.40;;;;;;5063589;28;20416;-73
2023/04/18 07:31:32;;;;;;;9.00;8.20;;;11.70;69.70;;;;;;5062741;28;20751;-72
2023/04/18 07:33:59;;;;;;;8.82;8.10;;;11.80;68.30;;;;;;5063517;28;20430;-72
2023/04/18 07:36:26;;;;;;;8.30;7.50;;;11.90;68.30;;;;;;5064143;28;20882;-72
2023/04/18 07:38:53;;;;;;;7.97;7.28;;;12.00;67.70;;;;;;5063294;28;20415;-73
2023/04/18 07:41:19;;;;;;;8.68;7.88;;;12.00;66.80;;;;;;5061268;28;20794;-73
2023/04/18 07:43:48;;;;;;;8.48;7.78;;;12.10;66.70;;;;;;5062299;28;20819;-72
2023/04/18 07:46:14;;;;;;;8.53;7.73;;;12.10;66.20;;;;;;5058492;28;20538;-72
2023/04/18 07:48:41;;;;;;;8.33;7.63;;;12.20;66.60;;;;;;5063782;28;20411;-72
2023/04/18 07:51:08;;;;;;;8.00;7.30;;;12.20;64.90;;;;;;5054937;28;20446;-71
2023/04/18 07:53:35;;;;;;;9.10;8.20;;;12.30;65.00;;;;;;5069446;28;20732;-72
2023/04/18 07:56:02;;;;;;;8.45;7.65;;;12.30;65.60;;;;;;5066188;28;20558;-72
2023/04/18 07:58:29;;;;;;;7.90;7.20;;;12.40;65.90;;;;;;5063530;28;20480;-72
2023/04/18 08:00:57;;;;;;;8.13;7.43;;;12.40;64.70;;;;;;5063040;28;20765;-71
2023/04/18 08:03:23;;;;;;;8.80;7.90;;;12.30;64.90;;;;;;5056003;28;20411;-73
2023/04/18 08:05:50;;;;;;;9.02;7.28;;;12.20;65.20;;;;;;5062182;28;20423;-73
2023/04/18 08:08:17;;;;;;;8.20;7.50;;;12.10;66.20;;;;;;5063665;28;20415;-71
2023/04/18 08:10:44;;;;;;;8.47;7.77;;;12.10;67.00;;;;;;5062139;28;20431;-71
2023/04/18 08:13:12;;;;;;;7.60;7.00;;;12.20;66.30;;;;;;5064065;28;20464;-72
2023/04/18 08:15:38;;;;;;;7.80;7.10;;;12.20;65.80;;;;;;5062830;28;20513;-71
2023/04/18 08:18:06;;;;;;;7.70;7.00;;;12.20;66.60;;;;;;5059262;28;20435;-72
2023/04/18 08:20:35;;;;;;;7.70;7.00;;;12.50;66.10;;;;;;5051418;28;20448;-72
2023/04/18 08:23:01;;;;;;;7.95;7.25;;;12.80;64.80;;;;;;5062754;28;20438;-72
2023/04/18 08:25:28;;;;;;;8.50;7.80;;;13.10;63.10;;;;;;5062085;28;20898;-72
2023/04/18 08:27:55;;;;;;;7.57;6.88;;;13.30;61.00;;;;;;5063087;28;20511;-72
2023/04/18 08:30:22;;;;;;;8.30;7.50;;;13.60;60.90;;;;;;5071757;28;20674;-72
2023/04/18 08:32:48;;;;;;;7.75;7.15;;;13.90;60.20;;;;;;5062380;28;20431;-73
2023/04/18 08:35:17;;;;;;;7.80;7.10;;;14.30;59.10;;;;;;5064162;28;20431;-73
2023/04/18 08:37:43;;;;;;;7.85;7.15;;;14.50;57.60;;;;;;5067815;28;20415;-72
2023/04/18 08:40:10;;;;;;;7.00;6.40;;;14.50;57.00;;;;;;5062981;28;20434;-72
2023/04/18 08:42:37;;;;;;;7.20;6.60;;;14.50;55.90;;;;;;5065078;28;20850;-72
2023/04/18 08:45:05;;;;;;;10.00;9.20;;;14.50;55.90;;;;;;5063334;28;20500;-72
2023/04/18 08:47:34;;;;;;;7.05;6.45;;;14.40;56.40;;;;;;5064311;28;20411;-72
2023/04/18 08:50:01;;;;;;;7.10;6.50;;;14.10;56.70;;;;;;5056919;28;21011;-72
2023/04/18 08:52:31;;;;;;;7.20;6.50;;;14.00;57.90;;;;;;5062210;28;20515;-72
2023/04/18 08:54:58;;;;;;;6.80;6.10;;;14.00;58.10;;;;;;5071120;28;20429;-72
2023/04/18 08:57:26;;;;;;;7.20;6.60;;;13.90;58.30;;;;;;5063747;28;20943;-73
2023/04/18 08:59:54;;;;;;;7.40;6.78;;;13.90;56.60;;;;;;5076923;28;20508;-72
2023/04/18 09:02:22;;;;;;;6.60;6.10;;;13.60;56.60;;;;;;5069941;28;20443;-72
2023/04/18 09:04:51;;;;;;;6.97;6.38;;;13.50;57.70;;;;;;5062181;28;20431;-71
2023/04/18 09:07:19;;;;;;;6.90;6.30;;;13.40;58.20;;;;;;5065422;28;20459;-72
2023/04/18 09:09:49;;;;;;;6.70;6.20;;;13.40;59.90;;;;;;5064815;28;20450;-72
2023/04/18 09:12:18;;;;;;;6.55;5.95;;;13.30;60.30;;;;;;5066743;28;20510;-72
2023/04/18 09:14:47;;;;;;;6.93;6.32;;;13.40;59.90;;;;;;5074208;28;20876;-72
2023/04/18 09:17:30;;;;;;;7.20;6.60;;;13.40;59.60;;;;;;5066027;28;20502;-72
2023/04/18 09:19:57;;;;;;;7.03;6.32;;;13.50;59.20;;;;;;5064781;28;20431;-72
2023/04/18 09:22:25;;;;;;;6.70;6.10;;;13.50;60.20;;;;;;5066129;28;20422;-72
2023/04/18 09:24:56;;;;;;;9.27;8.38;;;13.60;60.00;;;;;;5066633;28;20427;-71
2023/04/18 09:27:23;;;;;;;6.70;6.00;;;13.60;59.40;;;;;;5071686;28;20475;-70
2023/04/18 09:29:53;;;;;;;8.27;7.57;;;13.60;59.90;;;;;;5067836;28;20435;-71
2023/04/18 09:32:23;;;;;;;8.02;7.32;;;13.60;58.70;;;;;;5066168;28;20461;-71
2023/04/18 09:34:53;;;;;;;6.80;6.20;;;13.50;58.80;;;;;;5068669;28;20464;-72
2023/04/18 09:37:21;;;;;;;7.10;6.60;;;13.60;59.70;;;;;;5065963;28;20423;-71
2023/04/18 09:39:48;;;;;;;7.00;6.40;;;13.70;58.60;;;;;;5065066;28;20463;-72
2023/04/18 09:42:17;;;;;;;6.50;6.00;;;13.70;58.30;;;;;;5064710;28;20436;-71
2023/04/18 09:45:03;;;;;;;6.10;5.60;;;13.80;58.40;;;;;;5065620;28;20474;-73
2023/04/18 09:47:31;;;;;;;6.37;5.87;;;13.80;58.60;;;;;;5065301;28;20856;-73
2023/04/18 09:49:58;;;;;;;6.00;5.50;;;14.00;57.60;;;;;;5065029;28;20534;-72
2023/04/18 09:52:25;;;;;;;6.35;5.75;;;14.10;56.50;;;;;;5065884;28;20427;-72
2023/04/18 09:54:59;;;;;;;6.20;5.70;;;14.20;56.30;;;;;;5065005;28;20446;-73
2023/04/18 09:57:29;;;;;;;5.93;5.32;;;14.30;56.90;;;;;;5065141;28;20408;-73
2023/04/18 10:00:05;;;;;;;6.50;5.90;;;14.40;56.70;;;;;;5063816;28;20523;-73
2023/04/18 10:02:37;;;;;;;6.10;5.60;;;14.50;56.60;;;;;;5072918;28;20755;-72
2023/04/18 10:05:07;;;;;;;6.10;5.60;;;14.70;55.30;;;;;;5053910;28;20646;-72
2023/04/18 10:07:35;;;;;;;6.40;5.90;;;14.70;55.50;;;;;;5065805;28;20412;-73
2023/04/18 10:10:01;;;;;;;5.95;5.45;;;14.80;54.50;;;;;;5064875;28;20504;-72
2023/04/18 10:12:30;;;;;;;5.93;5.32;;;14.70;55.00;;;;;;5065897;28;20423;-72
2023/04/18 10:14:57;;;;;;;5.90;5.40;;;14.70;55.30;;;;;;5064925;28;20522;-70
2023/04/18 10:17:26;;;;;;;9.25;8.45;;;14.70;55.60;;;;;;5064707;28;20853;-74
2023/04/18 10:20:05;;;;;;;6.55;5.95;;;14.80;56.00;;;;;;5068322;28;20442;-72
2023/04/18 10:22:34;;;;;;;5.30;4.80;;;15.20;56.10;;;;;;5056361;28;20447;-72
2023/04/18 10:25:00;;;;;;;5.80;5.30;;;15.70;53.40;;;;;;5065969;28;20435;-73
2023/04/18 10:27:58;;;;;;;5.10;4.70;;;16.20;50.80;;;;;;5064494;28;20774;-71
2023/04/18 10:30:51;;;;;;;5.60;5.20;;;16.20;49.70;;;;;;5062359;28;20863;-72
2023/04/18 10:33:26;;;;;;;5.32;4.93;;;16.00;50.10;;;;;;5070976;28;20426;-73
2023/04/18 10:35:57;;;;;;;5.10;4.70;;;16.00;50.70;;;;;;5053429;28;20438;-72
2023/04/18 10:38:25;;;;;;;5.40;5.00;;;16.20;51.00;;;;;;5064215;28;20458;-73
2023/04/18 10:40:52;;;;;;;5.70;5.20;;;16.40;50.60;;;;;;5073860;28;20471;-72
2023/04/18 10:43:20;;;;;;;5.75;5.15;;;16.70;48.60;;;;;;5067045;28;20976;-72
2023/04/18 10:46:10;;;;;;;5.68;5.18;;;16.70;48.80;;;;;;5064623;28;20437;-72
2023/04/18 10:48:38;;;;;;;5.27;4.87;;;16.50;48.80;;;;;;5071546;28;20430;-73
2023/04/18 10:51:15;;;;;;;5.22;4.80;;;16.30;49.50;;;;;;5067537;28;20811;-72
2023/04/18 10:53:48;;;;;;;5.50;5.00;;;16.30;50.10;;;;;;5070509;28;20438;-72
2023/04/18 10:56:15;;;;;;;5.22;4.82;;;16.30;50.70;;;;;;5059447;28;20422;-73
2023/04/18 10:58:48;;;;;;;5.80;5.30;;;16.40;49.60;;;;;;5064420;28;20431;-72
2023/04/18 11:01:20;;;;;;;5.80;5.30;;;16.40;49.90;;;;;;5059314;28;20632;-72
2023/04/18 11:03:47;;;;;;;5.70;5.20;;;16.50;49.90;;;;;;5067686;28;20416;-73
2023/04/18 11:06:13;;;;;;;5.43;5.03;;;16.50;49.90;;;;;;5064820;28;20511;-73
2023/04/18 11:08:40;;;;;;;6.15;5.60;;;16.50;49.50;;;;;;5061201;28;20435;-72
2023/04/18 11:11:10;;;;;;;5.75;5.25;;;16.40;50.20;;;;;;5062775;28;20807;-73
2023/04/18 11:13:36;;;;;;;6.20;5.70;;;16.30;51.30;;;;;;5064006;28;20458;-70
2023/04/18 11:16:05;;;;;;;6.43;5.82;;;16.20;50.80;;;;;;5063659;28;20822;-73
2023/04/18 11:18:40;;;;;;;5.82;5.32;;;16.10;51.60;;;;;;5063968;28;20546;-71
2023/04/18 11:21:07;;;;;;;6.15;5.65;;;16.00;52.00;;;;;;5062914;28;20561;-72
2023/04/18 11:23:34;;;;;;;5.68;5.18;;;16.00;52.80;;;;;;5065061;28;20777;-73
2023/04/18 11:26:02;;;;;;;6.07;5.50;;;16.30;53.40;;;;;;5054285;28;20511;-73
2023/04/18 11:28:28;;;;;;;6.30;5.30;;;16.90;51.50;;;;;;5056493;28;20760;-73
2023/04/18 11:30:58;;;;;;;5.80;5.30;;;17.40;50.10;;;;;;5060580;28;20433;-72
2023/04/18 11:33:28;;;;;;;6.45;5.85;;;17.90;48.70;;;;;;5060704;28;20536;-72
2023/04/18 11:35:58;;;;;;;6.30;5.80;;;18.10;47.50;;;;;;5061435;28;20782;-70
2023/04/18 11:38:29;;;;;;;5.50;5.10;;;18.10;47.20;;;;;;5063946;28;20534;-70
2023/04/18 11:40:56;;;;;;;6.10;5.60;;;17.80;47.70;;;;;;5058694;28;20423;-70
2023/04/18 11:43:24;;;;;;;5.30;4.90;;;17.70;48.10;;;;;;5067652;28;20477;-70
2023/04/18 11:45:52;;;;;;;5.97;5.38;;;17.60;49.30;;;;;;5069580;28;20441;-73
2023/04/18 11:48:19;;;;;;;5.80;5.30;;;17.60;48.50;;;;;;5062274;28;20586;-71
2023/04/18 11:50:47;;;;;;;5.70;5.20;;;17.60;48.20;;;;;;5060782;28;20447;-72
2023/04/18 11:53:13;;;;;;;5.87;5.37;;;17.50;48.60;;;;;;5063084;28;20884;-73
2023/04/18 11:55:40;;;;;;;5.90;5.40;;;17.40;48.00;;;;;;5064459;28;20781;-72
2023/04/18 11:58:07;;;;;;;5.80;5.30;;;17.20;48.50;;;;;;5066328;28;20415;-72
2023/04/18 12:00:36;;;;;;;6.40;5.90;;;17.00;49.30;;;;;;5064360;28;20429;-72
2023/04/18 12:03:04;;;;;;;6.40;5.90;;;16.90;49.80;;;;;;5069847;28;20521;-72
2023/04/18 12:05:32;;;;;;;6.00;5.50;;;16.60;50.50;;;;;;5064418;28;20920;-70
2023/04/18 12:08:07;;;;;;;6.10;5.70;;;16.40;51.00;;;;;;5067666;28;20436;-72
2023/04/18 12:10:35;;;;;;;5.80;5.30;;;16.20;51.80;;;;;;5061659;28;20443;-73
2023/04/18 12:13:06;;;;;;;5.55;5.15;;;16.10;52.50;;;;;;5060013;28;20455;-71
2023/04/18 12:15:33;;;;;;;6.18;5.60;;;16.10;52.70;;;;;;5070081;28;20426;-71
2023/04/18 12:18:01;;;;;;;5.53;5.03;;;16.00;52.60;;;;;;5064809;28;20511;-71
2023/04/18 12:20:36;;;;;;;5.75;5.25;;;16.00;52.20;;;;;;5062854;28;20438;-70
2023/04/18 12:23:03;;;;;;;5.70;5.20;;;16.10;52.20;;;;;;5062744;28;20874;-71
2023/04/18 12:25:32;;;;;;;6.50;5.40;;;16.20;51.50;;;;;;5063477;28;20475;-71
2023/04/18 12:28:01;;;;;;;5.30;4.90;;;16.40;50.80;;;;;;5064109;28;20444;-71
2023/04/18 12:30:29;;;;;;;5.70;5.30;;;16.50;50.10;;;;;;5063863;28;20411;-70
2023/04/18 12:32:58;;;;;;;5.93;5.43;;;16.60;50.20;;;;;;5060975;28;20427;-70
2023/04/18 12:35:25;;;;;;;5.30;4.90;;;16.60;50.40;;;;;;5065151;28;20736;-71
2023/04/18 12:37:55;;;;;;;5.40;5.00;;;16.50;50.20;;;;;;5060179;28;20435;-71
2023/04/18 12:40:23;;;;;;;5.72;5.30;;;16.50;51.30;;;;;;5070329;28;20415;-69
2023/04/18 12:42:51;;;;;;;5.40;5.00;;;16.40;50.90;;;;;;5078241;28;20793;-71
2023/04/18 12:45:19;;;;;;;5.28;4.88;;;16.40;51.50;;;;;;5068131;28;20446;-70
2023/04/18 12:47:48;;;;;;;5.60;5.10;;;16.40;51.30;;;;;;5064305;28;20431;-71